Terminal Aerodrome Forecast
Issued by NWS

Home | Current Version | Previous Version | Text Only | Print | Product List | Glossary On
Versions: 1 2 3 4 5 6 7 8 9 10 11 12 13 14 15 16 17 18 19 20 21 22
000
FTUS41 KBGM 210802 AAA
TAFELM
TAF AMD
KELM 210802Z 2108/2206 32011KT P6SM -RA SCT025 OVC040
      TEMPO 2108/2109 OVC025
     FM210900 25011KT P6SM -SHRA BKN025
     FM211400 26015G25KT P6SM BKN035
      TEMPO 2120/2124 -SHRA
     FM220100 23004KT P6SM BKN100=

USA.gov is the U.S. government's official web portal to all federal, state and local government web resources and services.